createdAt,value
2023-04-06T00:00:46.455Z,-0.10
2023-04-06T00:03:15.782Z,-0.07
2023-04-06T00:05:46.148Z,-0.04
2023-04-06T00:08:16.270Z,-0.08
2023-04-06T00:10:45.020Z,-0.10
2023-04-06T00:13:14.077Z,-0.17
2023-04-06T00:15:43.164Z,-0.18
2023-04-06T00:18:13.693Z,-0.07
2023-04-06T00:20:42.789Z,-0.04
2023-04-06T00:23:11.781Z,-0.03
2023-04-06T00:25:40.555Z,-0.04
2023-04-06T00:28:09.817Z,-0.11
2023-04-06T00:30:38.905Z,-0.03
2023-04-06T00:33:08.192Z,-0.02
2023-04-06T00:35:39.999Z,-0.02
2023-04-06T00:38:09.109Z,-0.08
2023-04-06T00:40:37.752Z,-0.18
2023-04-06T00:43:06.951Z,-0.08
2023-04-06T00:45:36.156Z,0.10
2023-04-06T00:48:05.488Z,0.11
2023-04-06T00:50:34.596Z,0.20
2023-04-06T00:53:05.242Z,0.16
2023-04-06T00:55:33.564Z,0.19
2023-04-06T00:58:03.124Z,0.11
2023-04-06T01:00:37.291Z,0.09
2023-04-06T01:03:08.040Z,-0.03
2023-04-06T01:05:45.429Z,0.06
2023-04-06T01:08:23.513Z,0.22
2023-04-06T01:10:56.108Z,0.16
2023-04-06T01:13:28.330Z,0.25
2023-04-06T01:16:02.609Z,0.21
2023-04-06T01:18:46.068Z,0.07
2023-04-06T01:21:29.301Z,0.18
2023-04-06T01:24:25.945Z,0.23
2023-04-06T01:27:05.940Z,0.25
2023-04-06T01:30:01.748Z,0.11
2023-04-06T01:32:46.092Z,0.22
2023-04-06T01:35:18.441Z,0.26
2023-04-06T01:37:56.898Z,0.29
2023-04-06T01:40:33.933Z,0.33
2023-04-06T01:43:03.295Z,0.34
2023-04-06T01:45:48.760Z,0.23
2023-04-06T01:48:22.174Z,0.22
2023-04-06T01:50:52.166Z,0.21
2023-04-06T01:53:27.796Z,0.27
2023-04-06T01:56:13.663Z,0.29
2023-04-06T01:58:49.508Z,0.35
2023-04-06T02:01:19.790Z,0.27
2023-04-06T02:03:59.583Z,0.37
2023-04-06T02:06:29.103Z,0.26
2023-04-06T02:08:58.201Z,0.32
2023-04-06T02:11:28.687Z,0.30
2023-04-06T02:13:58.290Z,0.18
2023-04-06T02:16:31.932Z,0.13
2023-04-06T02:19:01.283Z,0.16
2023-04-06T02:21:30.888Z,0.20
2023-04-06T02:24:00.049Z,0.16
2023-04-06T02:26:30.765Z,0.16
2023-04-06T02:29:00.023Z,0.21
2023-04-06T02:31:28.636Z,0.23
2023-04-06T02:33:58.358Z,0.16
2023-04-06T02:36:28.420Z,0.19
2023-04-06T02:38:57.737Z,0.15
2023-04-06T02:41:27.857Z,0.17
2023-04-06T02:43:58.895Z,0.20
2023-04-06T02:46:38.085Z,0.21
2023-04-06T02:49:07.768Z,0.24
2023-04-06T02:51:37.919Z,0.22
2023-04-06T02:54:33.383Z,0.15
2023-04-06T02:57:05.498Z,0.04
2023-04-06T02:59:45.192Z,-0.01
2023-04-06T03:02:29.893Z,-0.06
2023-04-06T03:05:07.947Z,0.02
2023-04-06T03:07:40.609Z,0.00
2023-04-06T03:10:14.696Z,0.02
2023-04-06T03:12:43.803Z,0.00
2023-04-06T03:15:24.005Z,-0.04
2023-04-06T03:18:00.227Z,0.00
2023-04-06T03:20:43.439Z,-0.07
2023-04-06T03:23:15.684Z,-0.08
2023-04-06T03:25:46.588Z,-0.13
2023-04-06T03:28:19.513Z,-0.20
2023-04-06T03:30:55.307Z,-0.24
2023-04-06T03:34:00.259Z,-0.29
2023-04-06T03:36:34.198Z,-0.31
2023-04-06T03:39:05.363Z,-0.54
2023-04-06T03:41:37.627Z,-0.28
2023-04-06T03:44:22.148Z,-0.32
2023-04-06T03:46:52.561Z,-0.36
2023-04-06T03:49:22.703Z,-0.53
2023-04-06T03:51:55.712Z,-0.59
2023-04-06T03:54:25.375Z,-0.64
2023-04-06T03:56:54.552Z,-0.68
2023-04-06T03:59:23.904Z,-0.74
2023-04-06T04:01:56.923Z,-0.64
2023-04-06T04:04:26.382Z,-0.72
2023-04-06T04:06:55.578Z,-0.71
2023-04-06T04:09:24.672Z,-0.67
2023-04-06T04:11:53.813Z,-0.62
2023-04-06T04:14:23.952Z,-0.64
2023-04-06T04:16:52.908Z,-0.55
2023-04-06T04:19:23.711Z,-0.48
2023-04-06T04:21:53.040Z,-0.49
2023-04-06T04:24:29.332Z,-0.59
2023-04-06T04:26:58.689Z,-0.43
2023-04-06T04:29:28.046Z,-0.21
2023-04-06T04:32:00.306Z,-0.27
2023-04-06T04:34:31.145Z,-0.26
2023-04-06T04:37:00.398Z,-0.32
2023-04-06T04:39:44.399Z,-0.19
2023-04-06T04:42:14.376Z,-0.21
2023-04-06T04:44:49.053Z,-0.13
2023-04-06T04:47:23.668Z,-0.24
2023-04-06T04:49:53.992Z,-0.21
2023-04-06T04:52:26.003Z,-0.13
2023-04-06T04:55:19.104Z,0.05
2023-04-06T04:57:51.482Z,0.17
2023-04-06T05:00:25.272Z,0.32
2023-04-06T05:02:58.640Z,0.20
2023-04-06T05:05:32.318Z,0.38
2023-04-06T05:08:02.592Z,0.39
2023-04-06T05:10:51.958Z,0.52
2023-04-06T05:13:22.103Z,0.48
2023-04-06T05:15:54.222Z,0.62
2023-04-06T05:18:30.636Z,0.60
2023-04-06T05:21:01.955Z,0.64
2023-04-06T05:23:50.619Z,0.60
2023-04-06T05:26:19.985Z,0.65
2023-04-06T05:28:49.350Z,0.60
2023-04-06T05:31:21.300Z,0.58
2023-04-06T05:33:52.992Z,0.62
2023-04-06T05:36:36.852Z,0.63
2023-04-06T05:39:13.451Z,0.62
2023-04-06T05:41:48.622Z,0.77
2023-04-06T05:44:20.089Z,0.94
2023-04-06T05:46:55.175Z,1.21
2023-04-06T05:49:24.457Z,1.25
2023-04-06T05:51:54.958Z,1.61
2023-04-06T05:54:24.780Z,1.64
2023-04-06T05:56:59.088Z,1.89
2023-04-06T05:59:28.308Z,1.97
2023-04-06T06:01:57.067Z,2.03
2023-04-06T06:04:26.409Z,1.90
2023-04-06T06:06:58.962Z,2.41
2023-04-06T06:09:37.451Z,2.64
2023-04-06T06:12:26.478Z,2.05
2023-04-06T06:14:57.052Z,2.31
2023-04-06T06:17:28.427Z,2.36
2023-04-06T06:19:58.238Z,2.25
2023-04-06T06:22:31.261Z,2.59
2023-04-06T06:25:00.685Z,3.00
2023-04-06T06:27:30.563Z,3.24
2023-04-06T06:29:59.738Z,3.39
2023-04-06T06:32:29.770Z,2.93
2023-04-06T06:34:59.248Z,3.31
2023-04-06T06:37:29.268Z,3.53
2023-04-06T06:40:02.868Z,3.39
2023-04-06T06:42:34.233Z,3.58
2023-04-06T06:45:17.927Z,3.77
2023-04-06T06:47:47.404Z,3.72
2023-04-06T06:50:16.822Z,3.47
2023-04-06T06:52:45.925Z,3.10
2023-04-06T06:55:16.624Z,3.25
2023-04-06T06:57:47.439Z,3.11
2023-04-06T07:00:18.013Z,3.53
2023-04-06T07:02:49.770Z,3.65
2023-04-06T07:05:27.402Z,3.47
2023-04-06T07:07:59.074Z,3.25
2023-04-06T07:10:30.400Z,2.97
2023-04-06T07:12:59.861Z,3.54
2023-04-06T07:15:29.233Z,4.28
2023-04-06T07:17:58.548Z,4.52
2023-04-06T07:20:29.214Z,4.25
2023-04-06T07:22:58.030Z,4.09
2023-04-06T07:25:27.248Z,4.32
2023-04-06T07:27:57.878Z,4.22
2023-04-06T07:30:31.702Z,4.55
2023-04-06T07:33:02.650Z,5.38
2023-04-06T07:35:32.446Z,5.71
2023-04-06T07:38:02.094Z,5.28
2023-04-06T07:40:32.930Z,4.39
2023-04-06T07:43:03.721Z,4.38
2023-04-06T07:45:34.246Z,4.24
2023-04-06T07:48:04.880Z,4.28
2023-04-06T07:50:35.339Z,3.84
2023-04-06T07:53:05.405Z,4.18
2023-04-06T07:55:34.375Z,4.08
2023-04-06T07:58:04.936Z,3.73
2023-04-06T08:00:34.188Z,3.49
2023-04-06T08:03:04.137Z,3.95
2023-04-06T08:05:33.401Z,3.63
2023-04-06T08:08:02.669Z,3.82
2023-04-06T08:10:32.902Z,3.76
2023-04-06T08:13:02.139Z,3.73
2023-04-06T08:15:32.802Z,3.81
2023-04-06T08:18:02.200Z,3.61
2023-04-06T08:20:31.603Z,3.62
2023-04-06T08:23:00.931Z,3.99
2023-04-06T08:25:29.796Z,4.10
2023-04-06T08:27:59.048Z,4.43
2023-04-06T08:30:28.470Z,4.52
2023-04-06T08:32:59.033Z,4.38
2023-04-06T08:35:28.552Z,4.42
2023-04-06T08:37:57.304Z,4.03
2023-04-06T08:40:26.617Z,3.94
2023-04-06T08:42:58.226Z,4.57
2023-04-06T08:45:27.379Z,4.08
2023-04-06T08:47:58.505Z,4.04
2023-04-06T08:50:27.691Z,4.57
2023-04-06T08:52:56.869Z,4.29
2023-04-06T08:55:26.557Z,3.83
2023-04-06T08:57:56.930Z,3.05
2023-04-06T09:00:28.654Z,3.22
2023-04-06T09:03:00.655Z,3.20
2023-04-06T09:05:30.148Z,3.21
2023-04-06T09:07:59.803Z,3.45
2023-04-06T09:10:28.996Z,3.39
2023-04-06T09:13:06.203Z,3.60
2023-04-06T09:15:35.904Z,3.45
2023-04-06T09:18:07.015Z,3.22
2023-04-06T09:20:36.465Z,3.35
2023-04-06T09:23:05.546Z,3.67
2023-04-06T09:25:34.483Z,3.34
2023-04-06T09:28:04.819Z,3.47
2023-04-06T09:30:34.235Z,3.26
2023-04-06T09:33:03.445Z,3.74
2023-04-06T09:35:34.231Z,3.58
2023-04-06T09:38:13.466Z,3.47
2023-04-06T09:41:00.686Z,3.52
2023-04-06T09:43:32.472Z,3.92
2023-04-06T09:46:05.160Z,3.96
2023-04-06T09:48:37.425Z,3.61
2023-04-06T09:51:09.378Z,3.10
2023-04-06T09:53:40.514Z,2.74
2023-04-06T09:56:12.141Z,2.42
2023-04-06T09:58:43.184Z,2.64
2023-04-06T10:01:14.550Z,2.46
2023-04-06T10:03:55.631Z,2.57
2023-04-06T10:06:28.455Z,2.63
2023-04-06T10:08:59.367Z,2.60
2023-04-06T10:11:28.782Z,2.72
2023-04-06T10:13:58.483Z,2.88
2023-04-06T10:16:29.215Z,2.70
2023-04-06T10:19:04.835Z,1.89
2023-04-06T10:21:36.714Z,1.75
2023-04-06T10:24:13.390Z,2.14
2023-04-06T10:26:42.582Z,1.77
2023-04-06T10:29:11.883Z,1.74
2023-04-06T10:31:45.633Z,1.76
2023-04-06T10:34:15.815Z,2.01
2023-04-06T10:36:47.027Z,2.25
2023-04-06T10:39:16.686Z,2.43
2023-04-06T10:41:49.346Z,2.57
2023-04-06T10:44:23.458Z,2.55
2023-04-06T10:46:56.632Z,2.44
2023-04-06T10:49:27.867Z,2.48
2023-04-06T10:51:59.313Z,2.40
2023-04-06T10:54:29.594Z,2.40
2023-04-06T10:56:58.897Z,2.40
2023-04-06T10:59:28.267Z,2.19
2023-04-06T11:01:57.133Z,2.34
2023-04-06T11:04:27.271Z,2.18
2023-04-06T11:06:58.885Z,1.98
2023-04-06T11:09:28.628Z,2.02
2023-04-06T11:11:58.126Z,2.31
2023-04-06T11:14:28.498Z,2.20
2023-04-06T11:16:57.738Z,2.31
2023-04-06T11:19:27.541Z,2.48
2023-04-06T11:21:59.886Z,2.44
2023-04-06T11:24:29.420Z,2.47
2023-04-06T11:27:02.123Z,2.48
2023-04-06T11:29:32.767Z,2.20
2023-04-06T11:32:03.437Z,2.33
2023-04-06T11:34:32.294Z,2.55
2023-04-06T11:37:06.941Z,2.63
2023-04-06T11:39:43.292Z,2.81
2023-04-06T11:42:12.694Z,2.66
2023-04-06T11:44:43.849Z,2.87
2023-04-06T11:47:15.200Z,2.65
2023-04-06T11:49:45.939Z,2.50
2023-04-06T11:52:20.342Z,2.41
2023-04-06T11:54:50.788Z,2.66
2023-04-06T11:57:21.453Z,2.72
2023-04-06T11:59:50.985Z,2.66
2023-04-06T12:02:20.115Z,2.18
2023-04-06T12:04:48.965Z,2.16
2023-04-06T12:07:19.525Z,2.34
2023-04-06T12:09:49.044Z,2.42
2023-04-06T12:12:18.343Z,2.59
2023-04-06T12:14:47.880Z,2.60
2023-04-06T12:17:20.129Z,2.64
2023-04-06T12:19:48.878Z,2.61
2023-04-06T12:22:20.459Z,2.58
2023-04-06T12:24:49.525Z,2.81
2023-04-06T12:27:18.474Z,2.56
2023-04-06T12:29:47.594Z,2.53
2023-04-06T12:32:16.924Z,2.52
2023-04-06T12:34:45.756Z,2.92
2023-04-06T12:37:15.007Z,2.48
2023-04-06T12:39:46.622Z,2.26
2023-04-06T12:42:16.656Z,2.28
2023-04-06T12:44:45.956Z,2.17
2023-04-06T12:47:15.192Z,2.07
2023-04-06T12:49:44.011Z,2.10
2023-04-06T12:52:13.671Z,2.12
2023-04-06T12:54:45.976Z,2.30
2023-04-06T12:57:16.337Z,2.28
2023-04-06T12:59:45.897Z,2.48
2023-04-06T13:02:15.347Z,2.41
2023-04-06T13:04:44.440Z,2.28
2023-04-06T13:07:13.784Z,2.34
2023-04-06T13:09:43.015Z,2.05
2023-04-06T13:12:13.803Z,2.00
2023-04-06T13:14:43.040Z,2.15
2023-04-06T13:17:12.206Z,2.16
2023-04-06T13:19:41.050Z,2.16
2023-04-06T13:22:10.542Z,2.31
2023-04-06T13:24:39.734Z,2.21
2023-04-06T13:27:08.934Z,2.04
2023-04-06T13:29:39.435Z,2.27
2023-04-06T13:32:11.026Z,2.15
2023-04-06T13:34:39.928Z,1.92
2023-04-06T13:37:08.959Z,1.93
2023-04-06T13:39:38.075Z,2.07
2023-04-06T13:42:07.806Z,1.99
2023-04-06T13:44:38.404Z,2.23
2023-04-06T13:47:08.178Z,2.06
2023-04-06T13:49:37.692Z,2.00
2023-04-06T13:52:07.074Z,1.72
2023-04-06T13:54:36.217Z,1.91
2023-04-06T13:57:05.824Z,2.03
2023-04-06T13:59:35.878Z,2.11
2023-04-06T14:02:06.788Z,2.10
2023-04-06T14:04:36.065Z,2.25
2023-04-06T14:07:08.312Z,2.48
2023-04-06T14:09:37.457Z,2.53
2023-04-06T14:12:06.703Z,2.38
2023-04-06T14:14:35.827Z,2.30
2023-04-06T14:17:06.328Z,2.11
2023-04-06T14:19:35.580Z,2.06
2023-04-06T14:22:05.197Z,2.09
2023-04-06T14:24:34.266Z,2.12
2023-04-06T14:27:03.760Z,2.01
2023-04-06T14:29:32.751Z,1.92
2023-04-06T14:32:01.954Z,2.11
2023-04-06T14:34:32.039Z,2.13
2023-04-06T14:37:02.238Z,2.14
2023-04-06T14:39:31.350Z,1.85
2023-04-06T14:42:00.719Z,1.98
2023-04-06T14:44:29.773Z,2.10
2023-04-06T14:46:58.812Z,1.83
2023-04-06T14:49:27.421Z,1.65
2023-04-06T14:51:58.512Z,1.79
2023-04-06T14:54:27.727Z,1.56
2023-04-06T14:56:57.929Z,1.76
2023-04-06T15:01:55.571Z,1.87
2023-04-06T15:04:24.750Z,1.71
2023-04-06T15:06:53.865Z,1.81
2023-04-06T15:09:24.629Z,1.68
2023-04-06T15:11:53.536Z,1.80
2023-04-06T15:14:22.565Z,1.76
2023-04-06T15:16:51.119Z,1.76
2023-04-06T15:19:20.113Z,1.76
2023-04-06T15:21:48.988Z,1.77
2023-04-06T15:24:18.079Z,1.86
2023-04-06T15:26:48.555Z,1.86
2023-04-06T15:29:17.602Z,1.92
2023-04-06T15:31:47.218Z,1.99
2023-04-06T15:34:16.562Z,1.84
2023-04-06T15:36:46.899Z,1.96
2023-04-06T15:39:15.976Z,2.19
2023-04-06T15:41:45.052Z,2.17
2023-04-06T15:44:16.027Z,2.10
2023-04-06T15:46:44.770Z,1.99
2023-04-06T15:49:13.902Z,1.78
2023-04-06T15:51:43.224Z,1.79
2023-04-06T15:54:12.290Z,1.92
2023-04-06T15:56:41.277Z,1.75
2023-04-06T15:59:10.461Z,1.70
2023-04-06T16:01:42.499Z,1.74
2023-04-06T16:04:12.605Z,1.80
2023-04-06T16:06:41.846Z,1.88
2023-04-06T16:09:10.812Z,1.82
2023-04-06T16:11:39.852Z,1.79
2023-04-06T16:14:10.083Z,1.65
2023-04-06T16:16:40.109Z,1.67
2023-04-06T16:19:09.199Z,1.51
2023-04-06T16:21:39.257Z,1.76
2023-04-06T16:24:08.712Z,1.92
2023-04-06T16:26:37.745Z,1.90
2023-04-06T16:29:06.961Z,1.86
2023-04-06T16:31:35.611Z,1.78
2023-04-06T16:34:06.171Z,2.09
2023-04-06T16:36:35.841Z,1.95
2023-04-06T16:39:05.069Z,1.94
2023-04-06T16:41:34.390Z,1.87
2023-04-06T16:44:03.636Z,1.89
2023-04-06T16:46:32.573Z,1.92
2023-04-06T16:49:01.778Z,1.83
2023-04-06T16:51:32.941Z,1.98
2023-04-06T16:54:02.494Z,1.88
2023-04-06T16:56:31.914Z,1.68
2023-04-06T16:59:00.985Z,1.76
2023-04-06T17:01:30.544Z,1.74
2023-04-06T17:03:59.960Z,1.85
2023-04-06T17:06:29.477Z,1.75
2023-04-06T17:09:01.434Z,1.84
2023-04-06T17:11:43.815Z,1.75
2023-04-06T17:14:19.250Z,1.90
2023-04-06T17:16:48.374Z,1.91
2023-04-06T17:19:17.463Z,1.96
2023-04-06T17:21:46.580Z,1.93
2023-04-06T17:24:17.169Z,2.01
2023-04-06T17:26:46.244Z,1.97
2023-04-06T17:29:15.877Z,2.06
2023-04-06T17:31:45.645Z,1.92
2023-04-06T17:34:14.669Z,1.88
2023-04-06T17:36:43.780Z,1.84
2023-04-06T17:39:12.952Z,1.75
2023-04-06T17:41:43.632Z,1.88
2023-04-06T17:44:12.935Z,1.90
2023-04-06T17:46:41.811Z,1.80
2023-04-06T17:49:11.095Z,1.94
2023-04-06T17:51:40.512Z,1.88
2023-04-06T17:54:09.591Z,1.82
2023-04-06T17:56:38.840Z,2.01
2023-04-06T17:59:11.617Z,1.91
2023-04-06T18:01:41.447Z,1.97
2023-04-06T18:04:10.748Z,1.84
2023-04-06T18:06:41.130Z,1.97
2023-04-06T18:09:10.828Z,2.03
2023-04-06T18:11:41.780Z,2.13
2023-04-06T18:14:16.357Z,2.21
2023-04-06T18:16:46.824Z,2.12
2023-04-06T18:19:17.162Z,1.96
2023-04-06T18:21:46.322Z,1.91
2023-04-06T18:24:27.371Z,1.98
2023-04-06T18:27:06.647Z,2.16
2023-04-06T18:29:37.267Z,2.30
2023-04-06T18:32:07.985Z,2.31
2023-04-06T18:34:37.434Z,2.26
2023-04-06T18:37:06.658Z,2.28
2023-04-06T18:39:37.799Z,2.22
2023-04-06T18:42:07.393Z,2.17
2023-04-06T18:44:37.837Z,2.25
2023-04-06T18:47:07.747Z,2.26
2023-04-06T18:49:36.563Z,2.34
2023-04-06T18:52:06.930Z,2.06
2023-04-06T18:54:35.646Z,2.09
2023-04-06T18:57:05.022Z,2.06
2023-04-06T18:59:34.382Z,2.00
2023-04-06T19:02:05.012Z,1.99
2023-04-06T19:04:33.995Z,1.93
2023-04-06T19:07:03.252Z,1.98
2023-04-06T19:09:32.303Z,1.94
2023-04-06T19:12:01.535Z,1.73
2023-04-06T19:14:33.062Z,1.73
2023-04-06T19:17:02.316Z,1.76
2023-04-06T19:19:32.463Z,1.81
2023-04-06T19:22:02.024Z,1.95
2023-04-06T19:24:31.139Z,2.03
2023-04-06T19:27:00.295Z,2.09
2023-04-06T19:29:29.354Z,2.11
2023-04-06T19:31:59.568Z,2.04
2023-04-06T19:34:28.742Z,1.79
2023-04-06T19:36:59.212Z,1.90
2023-04-06T19:39:28.424Z,1.95
2023-04-06T19:41:58.631Z,2.04
2023-04-06T19:44:27.768Z,2.14
2023-04-06T19:46:56.385Z,1.98
2023-04-06T19:49:28.447Z,1.73
2023-04-06T19:51:59.033Z,1.98
2023-04-06T19:54:28.330Z,1.84
2023-04-06T19:56:57.303Z,2.06
2023-04-06T19:59:26.273Z,2.03
2023-04-06T20:01:54.991Z,2.03
2023-04-06T20:04:25.271Z,2.02
2023-04-06T20:06:54.778Z,2.03
2023-04-06T20:09:25.390Z,2.07
2023-04-06T20:11:55.491Z,2.00
2023-04-06T20:14:24.654Z,2.02
2023-04-06T20:16:54.237Z,2.01
2023-04-06T20:19:23.650Z,2.00
2023-04-06T20:21:52.651Z,2.06
2023-04-06T20:24:21.909Z,2.02
2023-04-06T20:26:53.009Z,2.13
2023-04-06T20:29:22.126Z,1.95
2023-04-06T20:31:51.049Z,2.04
2023-04-06T20:34:20.414Z,2.12
2023-04-06T20:36:49.965Z,2.13
2023-04-06T20:39:19.101Z,2.12
2023-04-06T20:41:48.482Z,2.22
2023-04-06T20:44:19.111Z,2.38
2023-04-06T20:46:48.484Z,2.45
2023-04-06T20:49:18.504Z,2.35
2023-04-06T20:51:48.583Z,2.28
2023-04-06T20:54:17.847Z,2.42
2023-04-06T20:56:47.455Z,2.38
2023-04-06T20:59:16.478Z,2.26
2023-04-06T21:01:46.593Z,2.24
2023-04-06T21:04:16.058Z,2.07
2023-04-06T21:06:45.427Z,2.19
2023-04-06T21:09:14.741Z,2.10
2023-04-06T21:11:43.747Z,2.09
2023-04-06T21:14:12.840Z,2.15
2023-04-06T21:16:42.063Z,2.26
2023-04-06T21:19:12.620Z,2.36
2023-04-06T21:21:41.698Z,2.32
2023-04-06T21:24:10.742Z,2.38
2023-04-06T21:26:39.781Z,2.46
2023-04-06T21:29:09.114Z,2.47
2023-04-06T21:31:41.931Z,2.30
2023-04-06T21:34:13.656Z,2.32
2023-04-06T21:36:43.348Z,2.36
2023-04-06T21:39:12.309Z,2.38
2023-04-06T21:41:41.624Z,2.39
2023-04-06T21:44:10.602Z,2.42
2023-04-06T21:46:39.136Z,2.31
2023-04-06T21:49:08.239Z,2.38
2023-04-06T21:51:38.741Z,2.37
2023-04-06T21:54:07.850Z,2.53
2023-04-06T21:56:36.819Z,2.65
2023-04-06T21:59:06.034Z,2.66
2023-04-06T22:01:34.612Z,2.71
2023-04-06T22:04:28.310Z,2.82
2023-04-06T22:06:58.755Z,2.71
2023-04-06T22:09:27.400Z,2.76
2023-04-06T22:11:56.370Z,2.78
2023-04-06T22:14:25.884Z,2.85
2023-04-06T22:16:54.795Z,2.92
2023-04-06T22:19:23.843Z,2.86
2023-04-06T22:21:52.735Z,2.81
2023-04-06T22:24:23.062Z,3.01
2023-04-06T22:26:52.070Z,2.99
2023-04-06T22:29:20.988Z,2.94
2023-04-06T22:31:49.616Z,3.07
2023-04-06T22:34:18.844Z,3.13
2023-04-06T22:36:47.990Z,3.10
2023-04-06T22:39:17.278Z,3.16
2023-04-06T22:41:47.714Z,3.05
2023-04-06T22:44:16.973Z,3.11
2023-04-06T22:46:45.700Z,2.99
2023-04-06T22:49:14.885Z,2.97
2023-04-06T22:51:43.933Z,2.97
2023-04-06T22:54:13.352Z,2.92
2023-04-06T22:56:42.518Z,3.02
2023-04-06T22:59:12.876Z,3.01
2023-04-06T23:01:42.987Z,2.82
2023-04-06T23:04:12.138Z,3.04
2023-04-06T23:06:41.273Z,2.91
2023-04-06T23:09:10.400Z,2.89
2023-04-06T23:11:39.764Z,2.88
2023-04-06T23:14:08.922Z,2.85
2023-04-06T23:16:39.108Z,3.03
2023-04-06T23:19:09.398Z,3.04
2023-04-06T23:21:38.631Z,3.05
2023-04-06T23:24:07.711Z,2.87
2023-04-06T23:26:36.712Z,2.91
2023-04-06T23:29:05.637Z,3.09
2023-04-06T23:31:34.197Z,3.21
2023-04-06T23:34:05.076Z,3.20
2023-04-06T23:36:34.345Z,3.19
2023-04-06T23:39:03.442Z,3.14
2023-04-06T23:41:32.331Z,3.21
2023-04-06T23:44:01.279Z,3.17
2023-04-06T23:46:30.038Z,3.28
2023-04-06T23:48:58.988Z,3.27
2023-04-06T23:51:29.399Z,3.21
2023-04-06T23:53:58.345Z,3.15
2023-04-06T23:56:27.525Z,3.07
2023-04-06T23:58:56.092Z,3.08
